Time;durP1;ratioP1;P1;durP2;ratioP2;P2;SDS_P1;SDS_P2;PMS_P1;PMS_P2;Temp;Humidity;BMP_temperature;BMP_pressure;BME280_temperature;BME280_humidity;BME280_pressure;Samples;Min_cycle;Max_cycle;Signal;HPM_P1;HPM_P2
2020/12/08 00:01:52;;;;;;;24.02;14.15;;;;;;;-2.19;80.77;99244.91;1719015;82;21598;-66
2020/12/08 00:04:19;;;;;;;25.35;13.65;;;;;;;-2.23;80.80;99238.11;1724524;82;21729;-68
2020/12/08 00:06:46;;;;;;;21.33;12.40;;;;;;;-2.27;80.82;99236.41;1719819;81;21181;-68
2020/12/08 00:09:13;;;;;;;25.82;12.07;;;;;;;-2.29;80.83;99235.58;1723233;82;21596;-68
2020/12/08 00:11:41;;;;;;;21.70;12.65;;;;;;;-2.32;80.86;99228.77;1722534;82;21666;-68
2020/12/08 00:14:08;;;;;;;15.88;10.28;;;;;;;-2.35;80.92;99233.02;1722770;81;21264;-68
2020/12/08 00:16:40;;;;;;;26.02;13.53;;;;;;;-2.38;80.91;99235.59;1725857;81;21744;-66
2020/12/08 00:19:10;;;;;;;19.92;10.48;;;;;;;-2.40;80.97;99244.98;1723424;82;21058;-68
2020/12/08 00:21:45;;;;;;;18.60;11.65;;;;;;;-2.44;81.01;99230.50;1724430;82;21201;-67
2020/12/08 00:24:12;;;;;;;19.37;12.00;;;;;;;-2.47;81.02;99239.86;1733464;81;21179;-69
2020/12/08 00:26:40;;;;;;;;;;;;;;;-2.49;81.07;99239.05;1706118;81;22035;-67
2020/12/08 00:29:08;;;;;;;19.57;11.30;;;;;;;-2.51;81.15;99233.08;1721322;81;21644;-69
2020/12/08 00:31:36;;;;;;;18.52;12.15;;;;;;;-2.55;81.12;99239.06;1718406;83;21129;-70
2020/12/08 00:34:05;;;;;;;23.75;13.53;;;;;;;-2.57;81.24;99230.53;1710748;83;21032;-70
2020/12/08 00:36:32;;;;;;;25.55;14.75;;;;;;;-2.58;81.22;99228.81;1720263;83;21247;-69
2020/12/08 00:38:59;;;;;;;23.67;13.60;;;;;;;-2.59;81.25;99238.63;1703154;83;21168;-69
2020/12/08 00:41:26;;;;;;;24.23;13.85;;;;;;;-2.59;81.26;99236.07;1737956;81;21598;-70
2020/12/08 00:43:53;;;;;;;25.27;14.50;;;;;;;-2.59;81.37;99238.63;1728830;82;21270;-68
2020/12/08 00:46:20;;;;;;;20.65;12.78;;;;;;;-2.57;81.34;99238.20;1721027;82;21135;-69
2020/12/08 00:48:48;;;;;;;18.87;11.93;;;;;;;-2.55;81.35;99233.95;1729688;80;21179;-69
2020/12/08 00:51:17;;;;;;;21.42;12.18;;;;;;;-2.54;81.40;99235.64;1712411;83;21144;-68
2020/12/08 00:53:44;;;;;;;22.32;14.18;;;;;;;-2.54;81.50;99227.97;1724589;82;21246;-69
2020/12/08 00:56:13;;;;;;;22.10;13.08;;;;;;;-2.51;81.43;99233.50;1721762;83;21174;-69
2020/12/08 00:58:40;;;;;;;23.50;14.95;;;;;;;-2.51;81.42;99229.67;1712844;83;21239;-69
2020/12/08 01:01:08;;;;;;;22.02;13.30;;;;;;;-2.49;81.39;99231.37;1734624;81;21137;-69
2020/12/08 01:03:36;;;;;;;23.32;14.45;;;;;;;-2.48;81.45;99222.84;1716317;83;21230;-67
2020/12/08 01:06:03;;;;;;;22.07;12.28;;;;;;;-2.44;81.40;99233.05;1710167;83;22679;-68
2020/12/08 01:08:30;;;;;;;25.40;14.63;;;;;;;-2.43;81.40;99230.94;1707961;83;21246;-69
2020/12/08 01:10:57;;;;;;;21.12;13.58;;;;;;;-2.41;81.42;99231.77;1713059;82;21335;-69
2020/12/08 01:13:24;;;;;;;22.82;13.53;;;;;;;-2.41;81.41;99233.04;1717246;82;21065;-69
2020/12/08 01:15:51;;;;;;;26.45;15.05;;;;;;;-2.39;81.47;99221.11;1718007;82;21606;-67
2020/12/08 01:18:18;;;;;;;24.72;14.95;;;;;;;-2.39;81.43;99221.11;1689011;83;21688;-69
2020/12/08 01:20:46;;;;;;;23.75;14.83;;;;;;;-2.38;81.45;99210.89;1711969;82;21146;-67
2020/12/08 01:23:13;;;;;;;26.20;14.45;;;;;;;-2.37;81.46;99220.69;1712679;82;21219;-68
2020/12/08 01:25:40;;;;;;;20.70;13.85;;;;;;;-2.36;81.45;99218.54;1748215;81;21159;-70
2020/12/08 01:28:07;;;;;;;23.90;14.75;;;;;;;-2.36;81.45;99218.54;1733270;81;21203;-68
2020/12/08 01:30:34;;;;;;;21.68;14.05;;;;;;;-2.36;81.47;99203.20;1729810;81;21685;-70
2020/12/08 01:33:01;;;;;;;23.15;13.60;;;;;;;-2.34;81.47;99204.05;1710408;83;21171;-68
2020/12/08 01:35:28;;;;;;;26.77;13.90;;;;;;;-2.33;81.45;99210.86;1721516;83;21163;-70
2020/12/08 01:37:54;;;;;;;22.02;14.38;;;;;;;-2.32;81.49;99199.80;1711046;82;21005;-68
2020/12/08 01:40:21;;;;;;;22.22;16.05;;;;;;;-2.31;81.44;99198.92;1714785;82;21167;-68
2020/12/08 01:42:48;;;;;;;25.77;15.18;;;;;;;-2.32;81.42;99208.74;1719425;83;21389;-68
2020/12/08 01:45:15;;;;;;;25.25;15.00;;;;;;;-2.32;81.48;99189.56;1718227;83;21064;-69
2020/12/08 01:47:43;;;;;;;22.75;14.35;;;;;;;-2.32;81.45;99192.13;1715797;82;21569;-70
2020/12/08 01:50:10;;;;;;;22.27;13.83;;;;;;;-2.31;81.46;99205.31;1718114;82;21139;-69
2020/12/08 01:52:37;;;;;;;22.22;12.90;;;;;;;-2.31;81.46;99202.77;1715754;82;21151;-69
2020/12/08 01:55:05;;;;;;;23.45;15.58;;;;;;;-2.33;81.45;99205.75;1711753;82;21209;-69
2020/12/08 01:57:33;;;;;;;23.98;15.40;;;;;;;-2.33;81.49;99204.03;1712773;82;21207;-67
2020/12/08 02:00:00;;;;;;;20.23;8.60;;;;;;;-2.30;81.54;99209.56;1710260;82;21203;-69
2020/12/08 02:02:27;;;;;;;25.60;15.05;;;;;;;-2.29;81.53;99201.06;1712939;82;21539;-69
2020/12/08 02:04:54;;;;;;;18.42;11.38;;;;;;;-2.30;81.48;99195.50;1713274;82;21207;-67
2020/12/08 02:07:21;;;;;;;14.43;10.05;;;;;;;-2.30;81.49;99204.05;1716400;82;21678;-68
2020/12/08 02:09:48;;;;;;;22.75;13.10;;;;;;;-2.31;81.46;99202.77;1713170;82;21244;-68
2020/12/08 02:12:16;;;;;;;25.10;16.30;;;;;;;-2.33;81.50;99198.08;1714200;82;21606;-68
2020/12/08 02:14:43;;;;;;;22.87;12.55;;;;;;;-2.34;81.54;99207.89;1708008;83;21143;-68
2020/12/08 02:17:10;;;;;;;23.77;15.25;;;;;;;-2.34;81.54;99202.78;1718979;83;21152;-68
2020/12/08 02:19:37;;;;;;;22.22;14.90;;;;;;;-2.33;81.56;99213.41;1715177;82;22592;-70
2020/12/08 02:22:03;;;;;;;21.80;14.40;;;;;;;-2.30;81.57;99205.73;1714756;82;21525;-69
2020/12/08 02:24:30;;;;;;;24.32;14.95;;;;;;;-2.29;81.51;99212.56;1719882;82;20981;-67
2020/12/08 02:26:57;;;;;;;22.17;14.90;;;;;;;-2.27;81.54;99213.39;1719254;82;21096;-70
2020/12/08 02:29:24;;;;;;;22.98;15.10;;;;;;;-2.26;81.46;99225.34;1716330;82;21180;-68
2020/12/08 02:31:51;;;;;;;21.48;14.55;;;;;;;-2.27;81.48;99215.95;1710911;83;21963;-67
2020/12/08 02:34:18;;;;;;;22.85;13.88;;;;;;;-2.26;81.51;99211.27;1717027;83;21637;-67
2020/12/08 02:36:50;;;;;;;26.40;16.50;;;;;;;-2.26;81.47;99213.83;1712083;82;21128;-68
2020/12/08 02:39:17;;;;;;;20.80;13.13;;;;;;;-2.28;81.43;99211.70;1709673;82;21176;-69
2020/12/08 02:41:44;;;;;;;24.77;15.53;;;;;;;-2.32;81.42;99215.14;1716373;82;21171;-69
2020/12/08 02:44:11;;;;;;;29.15;15.85;;;;;;;-2.35;81.48;99212.56;1718027;83;21470;-69
2020/12/08 02:46:38;;;;;;;24.23;15.98;;;;;;;-2.37;81.50;99211.30;1712226;83;21808;-68
2020/12/08 02:49:05;;;;;;;21.42;13.45;;;;;;;-2.37;81.54;99214.30;1715828;82;21223;-69
2020/12/08 02:51:32;;;;;;;25.25;15.95;;;;;;;-2.35;81.57;99212.56;1716785;82;21178;-68
2020/12/08 02:53:58;;;;;;;22.35;16.32;;;;;;;-2.37;81.52;99214.30;1716883;83;21280;-68
2020/12/08 02:56:25;;;;;;;25.50;15.70;;;;;;;-2.36;81.56;99217.27;1720186;82;22799;-67
2020/12/08 03:01:41;;;;;;;23.27;14.38;;;;;;;-2.38;81.55;99222.80;1720635;81;21526;-64
2020/12/08 03:04:08;;;;;;;18.20;9.48;;;;;;;-2.40;81.50;99214.31;1720806;82;21127;-64
2020/12/08 03:06:37;;;;;;;18.07;11.48;;;;;;;-2.42;81.49;99203.23;1725565;81;21195;-67
2020/12/08 03:09:04;;;;;;;25.35;15.20;;;;;;;-2.48;81.47;99198.98;1721286;81;21199;-67
2020/12/08 03:11:32;;;;;;;22.70;15.53;;;;;;;-2.51;81.54;99215.18;1722121;81;21186;-67
2020/12/08 03:13:59;;;;;;;20.02;12.70;;;;;;;-2.50;81.66;99213.03;1708495;81;21221;-66
2020/12/08 03:16:26;;;;;;;16.95;10.20;;;;;;;-2.51;81.65;99207.52;1720049;81;21233;-66
2020/12/08 03:18:53;;;;;;;22.77;14.03;;;;;;;-2.52;81.47;99198.16;1712997;81;21656;-67
2020/12/08 03:21:20;;;;;;;24.82;15.18;;;;;;;-2.57;81.46;99204.97;1720296;82;21643;-69
2020/12/08 03:23:47;;;;;;;22.55;13.15;;;;;;;-2.60;81.58;99202.86;1725193;81;21240;-67
2020/12/08 03:26:22;;;;;;;25.95;16.00;;;;;;;-2.63;81.45;99194.77;1726720;81;21652;-69
2020/12/08 03:28:49;;;;;;;19.50;10.20;;;;;;;-2.66;81.50;99212.67;1727643;81;21208;-70
2020/12/08 03:31:16;;;;;;;27.70;16.10;;;;;;;-2.78;81.61;99190.95;1718917;81;21098;-67
2020/12/08 03:33:43;;;;;;;26.55;16.30;;;;;;;-2.78;81.61;99190.95;1724254;81;21577;-69
2020/12/08 03:36:15;;;;;;;21.50;13.15;;;;;;;-2.70;81.42;99208.41;1727638;81;21107;-69
2020/12/08 03:38:42;;;;;;;18.57;10.55;;;;;;;-2.71;81.39;99209.27;1717704;81;21194;-67
2020/12/08 03:41:09;;;;;;;29.20;16.75;;;;;;;-2.74;81.33;99196.50;1713940;81;21825;-69
2020/12/08 03:43:36;;;;;;;31.75;17.87;;;;;;;-2.75;81.45;99205.84;1726544;81;21071;-69
2020/12/08 03:46:06;;;;;;;29.80;16.77;;;;;;;-2.76;81.26;99212.25;1723054;81;21226;-68
2020/12/08 03:48:33;;;;;;;24.43;16.57;;;;;;;-2.78;81.28;99216.51;1724529;81;21111;-68
2020/12/08 03:51:00;;;;;;;18.85;11.12;;;;;;;-2.79;81.33;99219.93;1727524;81;21565;-69
2020/12/08 03:53:27;;;;;;;30.08;15.00;;;;;;;-2.79;81.30;99219.50;1720162;81;21202;-67
2020/12/08 03:55:54;;;;;;;26.87;15.58;;;;;;;-2.79;81.37;99219.93;1723761;81;21186;-70
2020/12/08 03:58:21;;;;;;;29.45;17.45;;;;;;;-2.78;81.35;99217.78;1725236;81;21219;-69
2020/12/08 04:00:48;;;;;;;27.58;16.87;;;;;;;-2.78;81.37;99225.45;1730330;81;21052;-68
2020/12/08 04:03:15;;;;;;;13.75;9.28;;;;;;;-2.76;81.34;99222.05;1697734;82;21143;-68
2020/12/08 04:05:42;;;;;;;30.80;16.87;;;;;;;-2.76;81.14;99213.53;1691627;82;21170;-68
2020/12/08 04:08:09;;;;;;;28.98;16.97;;;;;;;-2.77;81.24;99224.63;1690815;82;21601;-66
2020/12/08 04:10:36;;;;;;;24.45;14.93;;;;;;;-2.79;81.24;99227.16;1696356;82;21651;-67
2020/12/08 04:13:03;;;;;;;27.52;18.05;;;;;;;-2.78;81.24;99220.34;1693522;82;21361;-69
2020/12/08 04:15:29;;;;;;;28.73;18.60;;;;;;;-2.79;81.23;99218.66;1709006;82;21101;-69
2020/12/08 04:17:56;;;;;;;28.77;17.70;;;;;;;-2.80;81.18;99214.38;1703835;82;21060;-67
2020/12/08 04:20:24;;;;;;;24.72;17.32;;;;;;;-2.80;81.21;99208.86;1698748;82;21230;-66
2020/12/08 04:22:51;;;;;;;25.82;16.95;;;;;;;-2.79;81.26;99216.95;1704190;82;21272;-69
2020/12/08 04:25:18;;;;;;;30.82;16.90;;;;;;;-2.76;81.27;99228.87;1698123;82;21672;-69
2020/12/08 04:27:45;;;;;;;25.20;13.25;;;;;;;-2.74;81.18;99214.39;1687029;82;21199;-68
2020/12/08 04:30:12;;;;;;;25.37;16.55;;;;;;;-2.76;80.99;99213.53;1699922;82;21075;-67
2020/12/08 04:32:38;;;;;;;30.17;15.35;;;;;;;-2.77;81.18;99233.56;1700082;82;21154;-68
2020/12/08 04:35:05;;;;;;;23.70;11.57;;;;;;;-2.76;81.10;99228.87;1695063;84;22134;-69
2020/12/08 04:37:32;;;;;;;31.75;16.70;;;;;;;-2.77;81.07;99222.06;1689469;82;21377;-69
2020/12/08 04:39:59;;;;;;;25.97;16.37;;;;;;;-2.77;81.22;99225.90;1698806;82;21637;-66
2020/12/08 04:42:27;;;;;;;19.37;12.73;;;;;;;-2.76;81.23;99219.92;1703593;82;21178;-67
2020/12/08 04:44:55;;;;;;;29.52;13.53;;;;;;;-2.76;80.99;99210.98;1697546;82;21178;-69
2020/12/08 04:47:22;;;;;;;29.57;17.52;;;;;;;-2.81;81.02;99208.42;1695391;82;22185;-67
2020/12/08 04:49:54;;;;;;;33.45;17.17;;;;;;;-2.83;81.14;99197.77;1698297;82;21179;-69
2020/12/08 04:52:21;;;;;;;20.85;12.55;;;;;;;-2.83;81.20;99209.27;1706295;82;21749;-68
2020/12/08 04:54:48;;;;;;;22.75;11.70;;;;;;;-2.83;81.14;99201.61;1708472;82;21246;-68
2020/12/08 04:57:15;;;;;;;30.88;17.82;;;;;;;-2.85;81.12;99200.78;1696510;82;21033;-68
2020/12/08 04:59:42;;;;;;;30.65;15.40;;;;;;;-2.87;81.20;99206.31;1696959;82;21226;-70
2020/12/08 05:02:09;;;;;;;31.62;17.60;;;;;;;-2.88;81.20;99198.23;1708488;82;21189;-67
2020/12/08 05:04:36;;;;;;;22.48;11.63;;;;;;;-2.88;81.19;99203.34;1699918;82;21091;-67
2020/12/08 05:07:08;;;;;;;31.40;17.15;;;;;;;-2.88;81.24;99204.19;1693812;82;21091;-68
2020/12/08 05:09:49;;;;;;;29.07;17.15;;;;;;;-2.87;81.26;99213.55;1697930;82;21218;-68
2020/12/08 05:12:24;;;;;;;31.35;18.52;;;;;;;-2.85;81.24;99221.22;1695359;82;21740;-69
2020/12/08 05:14:52;;;;;;;19.27;11.50;;;;;;;-2.84;81.25;99220.36;1698971;82;21191;-68
2020/12/08 05:17:26;;;;;;;33.20;16.05;;;;;;;-2.84;81.10;99213.54;1683694;84;21184;-69
2020/12/08 05:20:06;;;;;;;31.17;18.85;;;;;;;-2.85;81.21;99226.33;1679582;82;21247;-67
2020/12/08 05:22:56;;;;;;;34.53;18.20;;;;;;;-2.77;81.33;99227.17;1823752;77;22804;-66
2020/12/08 05:25:26;;;;;;;33.40;19.75;;;;;;;-2.80;81.26;99230.58;1794797;78;21033;-67
2020/12/08 05:27:55;;;;;;;26.75;17.73;;;;;;;-2.77;81.26;99236.12;1805736;77;22185;-66
2020/12/08 05:30:24;;;;;;;27.73;17.85;;;;;;;-2.75;81.28;99235.67;1803907;78;21012;-65
2020/12/08 05:32:51;;;;;;;30.15;18.73;;;;;;;-2.74;81.22;99242.50;1819872;78;20953;-66
2020/12/08 05:35:22;;;;;;;33.13;19.67;;;;;;;-2.71;81.22;99246.33;1814324;78;21016;-65
2020/12/08 05:37:52;;;;;;;34.33;17.40;;;;;;;-2.70;81.21;99246.30;1804733;78;21024;-66
2020/12/08 05:40:23;;;;;;;39.33;19.07;;;;;;;-2.69;81.02;99238.20;1806803;78;21209;-67
2020/12/08 05:42:54;;;;;;;32.83;19.12;;;;;;;-2.71;81.09;99224.17;1801183;78;21614;-66
2020/12/08 05:45:23;;;;;;;30.85;21.23;;;;;;;-2.70;81.14;99233.96;1811369;78;21151;-67
2020/12/08 05:47:54;;;;;;;34.83;21.40;;;;;;;-2.68;81.23;99234.82;1817393;78;21564;-66
2020/12/08 05:50:25;;;;;;;34.88;21.65;;;;;;;-2.66;81.21;99238.23;1817654;78;21210;-65
2020/12/08 05:52:57;;;;;;;20.77;14.45;;;;;;;-2.65;81.19;99245.03;1811873;78;21445;-68
2020/12/08 05:55:30;;;;;;;33.30;17.32;;;;;;;-2.63;81.08;99236.95;1811835;78;21705;-67
2020/12/08 05:58:08;;;;;;;35.98;20.45;;;;;;;-2.62;81.15;99234.80;1808307;77;20996;-64
2020/12/08 06:00:35;;;;;;;31.73;15.83;;;;;;;-2.60;81.20;99238.22;1808572;78;21227;-67
2020/12/08 06:03:17;;;;;;;25.43;14.05;;;;;;;-2.58;81.09;99253.53;1814467;78;21047;-66
2020/12/08 06:05:48;;;;;;;34.20;19.62;;;;;;;-2.60;80.76;99240.77;1805251;78;21261;-68
2020/12/08 06:08:18;;;;;;;37.83;20.02;;;;;;;-2.62;81.08;99245.02;1822728;78;21148;-68
2020/12/08 06:10:55;;;;;;;36.13;20.23;;;;;;;-2.60;81.08;99243.33;1795049;78;21183;-68
2020/12/08 06:13:31;;;;;;;34.25;20.08;;;;;;;-2.58;81.16;99249.27;1813407;78;21003;-67
2020/12/08 06:15:59;;;;;;;33.00;18.25;;;;;;;-2.55;81.20;99251.84;1806631;78;21111;-70
2020/12/08 06:18:37;;;;;;;36.20;21.00;;;;;;;-2.54;81.10;99250.98;1807072;77;21205;-67
2020/12/08 06:21:05;;;;;;;;;;;;;;;-2.53;81.01;99252.67;1764644;80;21099;-66
2020/12/08 06:23:32;;;;;;;27.75;17.27;;;;;;;-2.52;81.08;99262.46;1741055;80;20658;-68
2020/12/08 06:26:03;;;;;;;21.62;13.03;;;;;;;-2.52;80.99;99259.50;1756051;80;21170;-68
2020/12/08 06:28:31;;;;;;;27.95;18.32;;;;;;;-2.53;80.87;99255.22;1742941;80;21182;-67
2020/12/08 06:31:08;;;;;;;28.02;16.12;;;;;;;-2.54;81.06;99259.92;1776550;79;21198;-69
2020/12/08 06:33:53;;;;;;;26.17;18.30;;;;;;;-2.54;80.86;99263.76;1770655;78;21022;-67
2020/12/08 06:36:22;;;;;;;34.92;19.20;;;;;;;-2.54;81.08;99273.98;1765813;80;21147;-68
2020/12/08 06:39:03;;;;;;;23.47;14.28;;;;;;;-2.54;81.02;99279.09;1749516;81;21164;-67
2020/12/08 06:41:37;;;;;;;31.17;15.18;;;;;;;-2.52;81.07;99276.13;1748562;81;21013;-66
2020/12/08 06:44:18;;;;;;;29.85;18.85;;;;;;;-2.51;81.01;99276.53;1740728;81;22193;-69
2020/12/08 06:46:58;;;;;;;29.92;17.37;;;;;;;-2.49;81.07;99267.16;1741594;81;21561;-70
2020/12/08 06:49:27;;;;;;;25.57;13.83;;;;;;;-2.45;80.99;99287.61;1750088;80;21004;-66
2020/12/08 06:51:57;;;;;;;30.52;19.55;;;;;;;-2.45;80.97;99282.49;1752869;81;21024;-66
2020/12/08 06:54:25;;;;;;;31.45;19.62;;;;;;;-2.44;81.01;99289.30;1746543;81;21613;-69
2020/12/08 06:56:58;;;;;;;34.78;20.25;;;;;;;-2.42;81.00;99290.16;1753387;81;21213;-69
2020/12/08 06:59:26;;;;;;;32.88;20.48;;;;;;;-2.40;81.05;99294.84;1760744;79;21056;-66
2020/12/08 07:01:56;;;;;;;35.90;20.43;;;;;;;-2.35;81.05;99298.22;1755890;79;21068;-68
2020/12/08 07:04:26;;;;;;;32.55;17.25;;;;;;;-2.33;81.04;99308.03;1761385;81;21019;-69
2020/12/08 07:06:54;;;;;;;38.78;24.12;;;;;;;-2.31;80.90;99310.16;1761417;81;21230;-70
2020/12/08 07:09:21;;;;;;;36.55;22.65;;;;;;;-2.28;81.03;99306.31;1762219;81;22156;-67
2020/12/08 07:12:11;;;;;;;29.90;20.37;;;;;;;-2.26;80.87;99299.50;1754485;81;21143;-67
2020/12/08 07:14:39;;;;;;;30.62;18.23;;;;;;;-2.25;80.87;99306.31;1762789;81;21710;-64
2020/12/08 07:17:07;;;;;;;25.85;16.85;;;;;;;-2.24;80.84;99302.92;1760061;79;21127;-65
2020/12/08 07:19:34;;;;;;;31.52;19.48;;;;;;;-2.24;80.70;99306.75;1752274;79;21147;-64
2020/12/08 07:22:08;;;;;;;34.88;20.05;;;;;;;-2.24;80.75;99300.36;1747068;79;22611;-65
2020/12/08 07:24:31;;;;;;;32.83;19.00;;;;;;;-2.23;80.79;99310.16;1760049;79;21087;-70
2020/12/08 07:27:00;;;;;;;27.45;18.52;;;;;;;-2.22;80.78;99306.73;1743703;81;21243;-68
2020/12/08 07:29:28;;;;;;;29.70;18.60;;;;;;;-2.19;80.82;99312.69;1735391;81;21068;-68
2020/12/08 07:31:54;;;;;;;23.38;15.15;;;;;;;-2.16;80.72;99313.95;1755820;80;21796;-66
2020/12/08 07:34:22;;;;;;;27.52;18.20;;;;;;;-2.16;80.50;99313.95;1743639;81;21220;-67
2020/12/08 07:36:48;;;;;;;32.38;19.32;;;;;;;-2.16;80.56;99316.51;1718832;82;21081;-68
2020/12/08 07:39:18;;;;;;;29.90;20.90;;;;;;;-2.17;80.52;99325.05;1741429;81;21623;-69
2020/12/08 07:41:46;;;;;;;74.07;46.25;;;;;;;-2.17;80.54;99325.05;1735231;81;21278;-69
2020/12/08 07:44:20;;;;;;;49.35;28.42;;;;;;;-2.16;80.63;99326.73;1758675;80;21446;-69
2020/12/08 07:46:49;;;;;;;73.60;40.80;;;;;;;-2.15;80.56;99325.91;1758421;79;21210;-67
2020/12/08 07:49:17;;;;;;;34.30;23.85;;;;;;;-2.13;80.54;99326.77;1756952;79;21172;-68
2020/12/08 07:51:51;;;;;;;33.25;19.57;;;;;;;-2.14;80.44;99331.44;1756843;79;21063;-68
2020/12/08 07:54:19;;;;;;;31.05;18.62;;;;;;;-2.14;80.50;99326.31;1755399;80;21040;-68
2020/12/08 07:56:46;;;;;;;26.65;16.23;;;;;;;-2.12;80.49;99333.57;1727735;82;21141;-69
2020/12/08 07:59:15;;;;;;;31.82;19.98;;;;;;;-2.13;80.34;99326.77;1753210;79;21187;-68
2020/12/08 08:01:43;;;;;;;36.05;17.67;;;;;;;-2.12;80.43;99325.05;1725340;81;21084;-68
2020/12/08 08:04:22;;;;;;;23.77;14.13;;;;;;;-2.10;80.47;99321.64;1754652;81;21199;-69
2020/12/08 08:06:49;;;;;;;27.98;11.70;;;;;;;-2.13;80.22;99326.77;1746812;81;21206;-66
2020/12/08 08:09:18;;;;;;;24.65;12.68;;;;;;;-2.15;80.06;99336.14;1732385;81;21143;-66
2020/12/08 08:11:47;;;;;;;24.55;15.05;;;;;;;-2.16;80.38;99343.37;1755931;81;21246;-68
2020/12/08 08:14:14;;;;;;;22.45;13.20;;;;;;;-2.16;80.36;99345.92;1760880;81;21167;-66
2020/12/08 08:16:42;;;;;;;24.40;13.85;;;;;;;-2.18;80.16;99345.53;1756478;81;21072;-69
2020/12/08 08:19:09;;;;;;;24.25;15.43;;;;;;;-2.17;80.41;99348.06;1753599;81;21143;-67
2020/12/08 08:21:36;;;;;;;28.52;16.67;;;;;;;-2.15;80.47;99361.72;1752912;80;21606;-67
2020/12/08 08:24:04;;;;;;;21.80;13.68;;;;;;;-2.12;80.49;99364.27;1732411;81;21232;-68
2020/12/08 08:26:31;;;;;;;29.82;17.20;;;;;;;-2.11;80.28;99355.72;1762464;79;21065;-68
2020/12/08 08:28:58;;;;;;;29.12;16.95;;;;;;;-2.09;80.42;99361.70;1726634;81;21783;-67
2020/12/08 08:31:26;;;;;;;28.90;16.45;;;;;;;-2.08;80.30;99353.59;1756379;79;27274;-69
2020/12/08 08:33:55;;;;;;;22.85;14.15;;;;;;;-2.08;80.22;99363.39;1751733;81;21130;-68
2020/12/08 08:36:22;;;;;;;67.47;38.60;;;;;;;-2.09;80.09;99365.97;1755082;81;21283;-68
2020/12/08 08:38:49;;;;;;;91.95;52.08;;;;;;;-2.09;80.18;99356.58;1759138;80;21546;-68
2020/12/08 08:41:16;;;;;;;63.25;37.65;;;;;;;-2.06;80.36;99361.69;1756002;79;20979;-68
2020/12/08 08:43:43;;;;;;;28.02;15.63;;;;;;;-2.03;80.23;99356.56;1755612;81;21131;-67
2020/12/08 08:46:12;;;;;;;40.23;20.75;;;;;;;-2.00;80.07;99349.75;1753948;81;21621;-67
2020/12/08 08:48:39;;;;;;;75.78;39.05;;;;;;;-2.01;79.98;99349.33;1757704;79;21633;-67
2020/12/08 08:51:07;;;;;;;33.02;17.32;;;;;;;-2.01;80.14;99360.84;1751037;79;21097;-68
2020/12/08 08:53:34;;;;;;;84.13;45.98;;;;;;;-1.99;80.05;99355.27;1752776;81;21190;-68
2020/12/08 08:56:02;;;;;;;56.83;34.73;;;;;;;-1.97;80.10;99347.17;1754768;81;21620;-68
2020/12/08 08:58:29;;;;;;;47.95;27.37;;;;;;;-1.95;80.12;99353.99;1750872;81;21073;-70
2020/12/08 09:00:57;;;;;;;39.85;24.77;;;;;;;-1.94;79.93;99349.72;1737128;81;22185;-66
2020/12/08 09:03:25;;;;;;;41.10;27.42;;;;;;;-1.95;79.88;99350.59;1753901;81;21257;-66
2020/12/08 09:05:54;;;;;;;37.33;22.58;;;;;;;-1.94;80.01;99352.28;1754425;81;25289;-68
2020/12/08 09:08:24;;;;;;;28.40;19.02;;;;;;;-1.94;79.94;99356.12;1736542;81;21196;-67
2020/12/08 09:10:50;;;;;;;25.95;15.05;;;;;;;-1.91;80.03;99363.78;1749105;81;21587;-69
2020/12/08 09:13:17;;;;;;;21.68;10.90;;;;;;;-1.89;80.02;99363.36;1758030;81;24489;-69
2020/12/08 09:15:47;;;;;;;28.05;15.03;;;;;;;-1.90;79.80;99368.06;1756963;79;21098;-68
2020/12/08 09:18:15;;;;;;;24.65;12.20;;;;;;;-1.90;79.80;99368.06;1737473;81;21035;-68
2020/12/08 09:20:42;;;;;;;31.55;13.98;;;;;;;-1.90;79.81;99364.23;1738019;81;21257;-68
2020/12/08 09:23:09;;;;;;;22.98;12.33;;;;;;;-1.91;79.86;99370.18;1761379;79;21135;-68
2020/12/08 09:25:36;;;;;;;22.90;13.68;;;;;;;-1.91;79.68;99365.06;1764562;80;21207;-69
2020/12/08 09:28:03;;;;;;;25.02;12.88;;;;;;;-1.92;79.83;99366.78;1764230;80;21067;-69
2020/12/08 09:30:30;;;;;;;26.05;10.82;;;;;;;-1.94;79.77;99356.12;1761347;81;21029;-69
2020/12/08 09:32:57;;;;;;;35.63;18.62;;;;;;;-1.96;79.73;99353.98;1766524;79;21211;-68
2020/12/08 09:35:25;;;;;;;25.27;14.63;;;;;;;-1.97;79.91;99362.52;1762926;81;21109;-68
2020/12/08 09:37:52;;;;;;;27.48;15.10;;;;;;;-1.98;79.96;99360.84;1737981;80;22066;-66
2020/12/08 09:40:19;;;;;;;27.35;12.73;;;;;;;-1.98;79.85;99364.23;1765666;81;21230;-67
2020/12/08 09:42:47;;;;;;;24.25;11.60;;;;;;;-2.00;79.75;99356.14;1758652;81;21124;-68
2020/12/08 09:45:14;;;;;;;23.75;14.15;;;;;;;-2.01;79.76;99359.56;1754317;81;21199;-69
2020/12/08 09:47:42;;;;;;;24.85;13.60;;;;;;;-2.03;79.98;99354.00;1739705;81;21845;-69
2020/12/08 09:50:10;;;;;;;23.50;14.00;;;;;;;-2.00;80.05;99351.02;1759707;81;22184;-67
2020/12/08 09:52:38;;;;;;;23.90;14.15;;;;;;;-1.99;79.90;99351.44;1766514;81;21204;-68
2020/12/08 09:55:06;;;;;;;22.25;12.55;;;;;;;-2.00;79.89;99347.19;1756753;81;21222;-68
2020/12/08 09:57:33;;;;;;;24.15;13.08;;;;;;;-2.01;79.84;99342.94;1764330;80;21211;-66
2020/12/08 10:00:01;;;;;;;22.27;13.45;;;;;;;-2.04;79.86;99349.75;1763791;81;25145;-68
2020/12/08 10:02:28;;;;;;;31.00;14.63;;;;;;;-2.04;79.97;99357.43;1764260;81;22163;-69
2020/12/08 10:04:55;;;;;;;33.58;15.80;;;;;;;-2.04;79.96;99357.43;1763286;81;21792;-69
2020/12/08 10:07:25;;;;;;;22.22;13.98;;;;;;;-2.01;79.98;99353.17;1756500;81;21182;-69
2020/12/08 10:09:53;;;;;;;23.10;12.85;;;;;;;-2.01;79.97;99348.05;1766021;81;21018;-67
2020/12/08 10:12:20;;;;;;;19.95;11.55;;;;;;;-2.04;79.97;99359.98;1753131;81;21616;-67
2020/12/08 10:14:48;;;;;;;16.45;9.25;;;;;;;-2.03;80.01;99348.89;1752634;79;21732;-67
2020/12/08 10:17:16;;;;;;;26.00;13.48;;;;;;;-2.06;79.76;99342.50;1760324;81;24528;-69
2020/12/08 10:19:44;;;;;;;;;;;;;;;-2.07;80.03;99345.92;1756300;81;21161;-69
2020/12/08 10:22:12;;;;;;;14.15;7.87;;;;;;;-2.07;79.81;99343.37;1734044;81;20599;-69
2020/12/08 10:24:40;;;;;;;22.93;11.65;;;;;;;-2.08;79.76;99346.77;1740821;81;21248;-68
2020/12/08 10:27:07;;;;;;;21.10;11.83;;;;;;;-2.09;79.97;99343.79;1760725;81;21204;-70
2020/12/08 10:29:34;;;;;;;19.00;12.13;;;;;;;-2.05;80.12;99346.75;1751737;80;21577;-67
2020/12/08 10:32:01;;;;;;;23.90;11.73;;;;;;;-2.00;79.98;99347.19;1761486;81;21123;-70
2020/12/08 10:34:30;;;;;;;21.55;10.28;;;;;;;-2.08;79.80;99337.81;1758110;81;20997;-68
2020/12/08 10:36:58;;;;;;;21.20;11.10;;;;;;;-1.99;79.88;99357.83;1749735;79;21199;-67
2020/12/08 10:39:25;;;;;;;15.68;8.70;;;;;;;-1.99;79.90;99359.95;1754123;80;21210;-66
2020/12/08 10:41:56;;;;;;;21.45;12.40;;;;;;;-1.97;79.72;99357.41;1753290;79;21238;-67
2020/12/08 10:44:23;;;;;;;32.63;14.90;;;;;;;-2.00;79.89;99363.81;1757358;79;21157;-67
2020/12/08 10:46:53;;;;;;;30.48;18.50;;;;;;;-2.00;79.93;99349.75;1758744;81;21163;-67
2020/12/08 10:49:22;;;;;;;28.30;12.95;;;;;;;-2.00;79.91;99356.14;1764789;79;21533;-68
2020/12/08 10:51:52;;;;;;;41.48;22.77;;;;;;;-2.01;79.73;99353.17;1764569;81;21586;-66
2020/12/08 10:54:21;;;;;;;30.15;16.87;;;;;;;-2.06;79.84;99348.90;1762146;81;21104;-67
2020/12/08 10:56:52;;;;;;;49.77;28.07;;;;;;;-2.06;79.81;99356.57;1754754;81;20976;-68
2020/12/08 10:59:20;;;;;;;19.42;10.63;;;;;;;-2.06;80.01;99359.13;1756506;81;21255;-69
2020/12/08 11:01:47;;;;;;;;;;;;;;;-2.07;79.75;99360.00;1751358;81;21529;-67
2020/12/08 11:04:14;;;;;;;24.05;13.70;;;;;;;-2.09;79.81;99364.25;1748081;81;21197;-69
2020/12/08 11:06:45;;;;;;;23.75;10.00;;;;;;;-2.10;79.86;99375.36;1758568;80;21902;-67
2020/12/08 11:09:10;;;;;;;21.68;10.28;;;;;;;-2.11;79.86;99365.95;1754584;81;21174;-69
2020/12/08 11:11:37;;;;;;;23.92;11.12;;;;;;;-2.09;79.91;99376.20;1758351;79;21207;-70
2020/12/08 11:14:05;;;;;;;14.75;8.35;;;;;;;-2.09;79.95;99369.37;1759875;81;21187;-68
2020/12/08 11:16:32;;;;;;;22.50;11.20;;;;;;;-2.09;79.75;99374.48;1754271;81;23872;-69
2020/12/08 11:18:59;;;;;;;21.00;12.13;;;;;;;-2.08;79.97;99380.02;1760405;81;21028;-68
2020/12/08 11:21:29;;;;;;;17.98;10.82;;;;;;;-2.07;80.06;99380.46;1758879;80;21153;-69
2020/12/08 11:23:58;;;;;;;20.02;12.13;;;;;;;-2.07;80.13;99367.67;1752169;81;21132;-69
2020/12/08 11:26:28;;;;;;;20.08;12.47;;;;;;;-2.06;80.25;99370.64;1764670;81;21053;-68
2020/12/08 11:28:56;;;;;;;24.10;11.93;;;;;;;-2.01;80.31;99368.52;1756564;79;21266;-69